sensor_id;sensor_type;location;lat;lon;timestamp;noise_LAeq;noise_LA_min;noise_LA_max;noise_LA01;noise_LA95
69619;Laerm;57653;51.434;5.984;2023-07-13T00:00:03;34.99;33.47;42.14;;
69619;Laerm;57653;51.434;5.984;2023-07-13T00:00:18;36.70;33.32;46.95;;
69619;Laerm;57653;51.434;5.984;2023-07-13T00:00:29;34.95;33.35;41.05;;
69619;Laerm;57653;51.434;5.984;2023-07-13T00:00:40;34.45;33.31;35.77;;
69619;Laerm;57653;51.434;5.984;2023-07-13T00:00:50;34.45;33.53;35.16;;
69619;Laerm;57653;51.434;5.984;2023-07-13T00:01:01;34.93;33.49;38.87;;
69619;Laerm;57653;51.434;5.984;2023-07-13T00:01:15;35.61;33.56;41.17;;
69619;Laerm;57653;51.434;5.984;2023-07-13T00:01:25;35.49;33.58;42.40;;
69619;Laerm;57653;51.434;5.984;2023-07-13T00:01:36;34.46;33.36;35.56;;
69619;Laerm;57653;51.434;5.984;2023-07-13T00:01:48;34.45;33.04;35.59;;
69619;Laerm;57653;51.434;5.984;2023-07-13T00:02:02;34.47;33.58;35.49;;
69619;Laerm;57653;51.434;5.984;2023-07-13T00:02:12;34.56;33.36;35.52;;
69619;Laerm;57653;51.434;5.984;2023-07-13T00:02:24;34.46;33.22;35.35;;
69619;Laerm;57653;51.434;5.984;2023-07-13T00:02:34;34.44;33.17;35.51;;
69619;Laerm;57653;51.434;5.984;2023-07-13T00:02:45;34.48;33.35;35.48;;
69619;Laerm;57653;51.434;5.984;2023-07-13T00:02:55;34.50;33.34;35.32;;
69619;Laerm;57653;51.434;5.984;2023-07-13T00:03:05;34.48;33.32;35.70;;
69619;Laerm;57653;51.434;5.984;2023-07-13T00:03:15;34.51;33.48;35.73;;
69619;Laerm;57653;51.434;5.984;2023-07-13T00:03:27;34.50;33.28;35.58;;
69619;Laerm;57653;51.434;5.984;2023-07-13T00:03:37;34.54;32.90;35.41;;
69619;Laerm;57653;51.434;5.984;2023-07-13T00:03:47;34.46;33.47;35.44;;
69619;Laerm;57653;51.434;5.984;2023-07-13T00:03:58;34.44;33.43;35.52;;
69619;Laerm;57653;51.434;5.984;2023-07-13T00:04:09;34.48;33.36;35.44;;
69619;Laerm;57653;51.434;5.984;2023-07-13T00:04:20;34.50;33.48;35.62;;
69619;Laerm;57653;51.434;5.984;2023-07-13T00:04:31;34.47;33.48;35.50;;
69619;Laerm;57653;51.434;5.984;2023-07-13T00:04:41;34.55;33.36;35.90;;
69619;Laerm;57653;51.434;5.984;2023-07-13T00:04:52;34.42;33.23;35.36;;
69619;Laerm;57653;51.434;5.984;2023-07-13T00:05:02;34.41;33.21;35.38;;
69619;Laerm;57653;51.434;5.984;2023-07-13T00:05:13;34.44;33.42;35.53;;
69619;Laerm;57653;51.434;5.984;2023-07-13T00:05:23;34.46;33.30;35.55;;
69619;Laerm;57653;51.434;5.984;2023-07-13T00:05:34;34.44;33.34;35.29;;
69619;Laerm;57653;51.434;5.984;2023-07-13T00:05:44;34.39;33.42;35.29;;
69619;Laerm;57653;51.434;5.984;2023-07-13T00:05:58;34.39;33.44;35.53;;
69619;Laerm;57653;51.434;5.984;2023-07-13T00:06:08;34.42;33.23;35.46;;
69619;Laerm;57653;51.434;5.984;2023-07-13T00:06:19;34.46;33.36;35.39;;
69619;Laerm;57653;51.434;5.984;2023-07-13T00:06:30;34.40;33.33;35.39;;
69619;Laerm;57653;51.434;5.984;2023-07-13T00:06:43;34.40;33.45;35.31;;
69619;Laerm;57653;51.434;5.984;2023-07-13T00:06:54;34.44;33.21;35.55;;
69619;Laerm;57653;51.434;5.984;2023-07-13T00:07:05;34.37;33.16;35.34;;
69619;Laerm;57653;51.434;5.984;2023-07-13T00:07:15;34.42;33.22;35.67;;
69619;Laerm;57653;51.434;5.984;2023-07-13T00:07:25;34.41;33.33;35.67;;
69619;Laerm;57653;51.434;5.984;2023-07-13T00:07:36;34.44;33.27;37.74;;
69619;Laerm;57653;51.434;5.984;2023-07-13T00:07:47;34.39;33.43;35.50;;
69619;Laerm;57653;51.434;5.984;2023-07-13T00:07:58;34.39;33.18;35.38;;
69619;Laerm;57653;51.434;5.984;2023-07-13T00:08:08;34.39;33.33;35.37;;
69619;Laerm;57653;51.434;5.984;2023-07-13T00:08:19;34.40;33.53;35.26;;
69619;Laerm;57653;51.434;5.984;2023-07-13T00:08:30;34.39;33.05;35.46;;
69619;Laerm;57653;51.434;5.984;2023-07-13T00:08:43;34.45;33.41;35.29;;
69619;Laerm;57653;51.434;5.984;2023-07-13T00:08:53;34.51;33.21;35.56;;
69619;Laerm;57653;51.434;5.984;2023-07-13T00:09:03;34.51;33.47;35.60;;
69619;Laerm;57653;51.434;5.984;2023-07-13T00:09:15;34.75;33.40;35.95;;
69619;Laerm;57653;51.434;5.984;2023-07-13T00:09:25;34.54;33.25;35.70;;
69619;Laerm;57653;51.434;5.984;2023-07-13T00:09:36;34.53;33.53;35.64;;
69619;Laerm;57653;51.434;5.984;2023-07-13T00:09:46;34.63;33.56;35.72;;
69619;Laerm;57653;51.434;5.984;2023-07-13T00:09:57;34.49;33.42;35.57;;
69619;Laerm;57653;51.434;5.984;2023-07-13T00:10:09;34.59;33.28;35.77;;
69619;Laerm;57653;51.434;5.984;2023-07-13T00:10:20;34.50;33.60;36.13;;
69619;Laerm;57653;51.434;5.984;2023-07-13T00:10:30;34.43;33.26;35.48;;
69619;Laerm;57653;51.434;5.984;2023-07-13T00:10:41;34.43;33.26;35.48;;
69619;Laerm;57653;51.434;5.984;2023-07-13T00:10:52;34.46;33.54;36.72;;
69619;Laerm;57653;51.434;5.984;2023-07-13T00:11:04;34.52;33.45;35.82;;
69619;Laerm;57653;51.434;5.984;2023-07-13T00:11:18;34.52;33.46;35.73;;
69619;Laerm;57653;51.434;5.984;2023-07-13T00:11:28;34.67;33.61;35.91;;
69619;Laerm;57653;51.434;5.984;2023-07-13T00:11:38;34.49;33.41;35.52;;
69619;Laerm;57653;51.434;5.984;2023-07-13T00:11:50;34.63;33.19;36.60;;
69619;Laerm;57653;51.434;5.984;2023-07-13T00:12:02;34.46;33.17;36.77;;
69619;Laerm;57653;51.434;5.984;2023-07-13T00:12:22;34.41;33.36;35.35;;
69619;Laerm;57653;51.434;5.984;2023-07-13T00:12:34;34.43;33.21;38.25;;
69619;Laerm;57653;51.434;5.984;2023-07-13T00:12:45;34.44;33.35;35.53;;
69619;Laerm;57653;51.434;5.984;2023-07-13T00:12:55;34.66;33.32;39.60;;
69619;Laerm;57653;51.434;5.984;2023-07-13T00:13:06;34.76;33.49;40.50;;
69619;Laerm;57653;51.434;5.984;2023-07-13T00:13:16;35.11;33.53;41.14;;
69619;Laerm;57653;51.434;5.984;2023-07-13T00:13:27;34.85;33.64;41.52;;
69619;Laerm;57653;51.434;5.984;2023-07-13T00:13:38;35.32;33.26;42.56;;
69619;Laerm;57653;51.434;5.984;2023-07-13T00:13:49;34.95;33.38;40.82;;
69619;Laerm;57653;51.434;5.984;2023-07-13T00:13:59;34.47;33.15;35.45;;
69619;Laerm;57653;51.434;5.984;2023-07-13T00:14:10;34.40;33.37;35.48;;
69619;Laerm;57653;51.434;5.984;2023-07-13T00:14:20;34.43;33.18;35.91;;
69619;Laerm;57653;51.434;5.984;2023-07-13T00:14:31;34.40;33.45;35.44;;
69619;Laerm;57653;51.434;5.984;2023-07-13T00:14:41;34.49;33.32;35.53;;
69619;Laerm;57653;51.434;5.984;2023-07-13T00:14:51;34.41;33.56;35.73;;
69619;Laerm;57653;51.434;5.984;2023-07-13T00:15:04;34.47;33.39;35.63;;
69619;Laerm;57653;51.434;5.984;2023-07-13T00:15:20;34.43;33.32;35.37;;
69619;Laerm;57653;51.434;5.984;2023-07-13T00:15:33;34.54;33.57;37.47;;
69619;Laerm;57653;51.434;5.984;2023-07-13T00:15:45;34.48;33.51;35.42;;
69619;Laerm;57653;51.434;5.984;2023-07-13T00:15:57;34.64;33.60;36.20;;
69619;Laerm;57653;51.434;5.984;2023-07-13T00:16:08;35.32;33.63;41.22;;
69619;Laerm;57653;51.434;5.984;2023-07-13T00:16:19;34.55;33.56;37.17;;
69619;Laerm;57653;51.434;5.984;2023-07-13T00:16:29;34.54;33.48;37.89;;
69619;Laerm;57653;51.434;5.984;2023-07-13T00:16:40;34.49;33.34;35.65;;
69619;Laerm;57653;51.434;5.984;2023-07-13T00:16:53;34.54;33.39;35.37;;
69619;Laerm;57653;51.434;5.984;2023-07-13T00:17:04;34.73;33.79;35.80;;
69619;Laerm;57653;51.434;5.984;2023-07-13T00:17:14;34.62;33.67;35.82;;
69619;Laerm;57653;51.434;5.984;2023-07-13T00:17:25;34.77;33.60;36.39;;
69619;Laerm;57653;51.434;5.984;2023-07-13T00:17:35;34.60;33.65;36.14;;
69619;Laerm;57653;51.434;5.984;2023-07-13T00:17:49;34.53;33.22;35.43;;
69619;Laerm;57653;51.434;5.984;2023-07-13T00:18:00;34.55;33.32;37.64;;
69619;Laerm;57653;51.434;5.984;2023-07-13T00:18:11;34.75;33.39;38.97;;
69619;Laerm;57653;51.434;5.984;2023-07-13T00:18:21;34.46;33.49;35.40;;
69619;Laerm;57653;51.434;5.984;2023-07-13T00:18:31;34.47;33.64;35.43;;
69619;Laerm;57653;51.434;5.984;2023-07-13T00:18:42;34.49;33.62;35.30;;
69619;Laerm;57653;51.434;5.984;2023-07-13T00:18:52;34.58;33.23;40.79;;
69619;Laerm;57653;51.434;5.984;2023-07-13T00:19:02;34.70;33.59;37.41;;
69619;Laerm;57653;51.434;5.984;2023-07-13T00:19:13;34.91;33.65;36.54;;
69619;Laerm;57653;51.434;5.984;2023-07-13T00:19:24;35.06;33.83;36.68;;
69619;Laerm;57653;51.434;5.984;2023-07-13T00:19:34;35.21;34.40;36.06;;
69619;Laerm;57653;51.434;5.984;2023-07-13T00:19:46;35.88;34.43;39.68;;
69619;Laerm;57653;51.434;5.984;2023-07-13T00:19:56;36.44;34.51;40.06;;
69619;Laerm;57653;51.434;5.984;2023-07-13T00:20:07;38.00;35.78;41.66;;
69619;Laerm;57653;51.434;5.984;2023-07-13T00:20:17;39.98;37.44;43.29;;
69619;Laerm;57653;51.434;5.984;2023-07-13T00:20:28;55.11;40.12;62.82;;
69619;Laerm;57653;51.434;5.984;2023-07-13T00:20:38;64.36;60.34;68.31;;
69619;Laerm;57653;51.434;5.984;2023-07-13T00:20:51;67.01;61.65;71.66;;
69619;Laerm;57653;51.434;5.984;2023-07-13T00:21:01;57.17;36.45;65.50;;
69619;Laerm;57653;51.434;5.984;2023-07-13T00:21:15;36.05;33.87;38.78;;
69619;Laerm;57653;51.434;5.984;2023-07-13T00:21:25;34.41;33.33;35.55;;
69619;Laerm;57653;51.434;5.984;2023-07-13T00:21:36;34.37;33.25;35.83;;
69619;Laerm;57653;51.434;5.984;2023-07-13T00:21:47;34.37;33.32;35.48;;
69619;Laerm;57653;51.434;5.984;2023-07-13T00:21:57;34.33;33.11;35.34;;
69619;Laerm;57653;51.434;5.984;2023-07-13T00:22:07;34.28;33.29;35.40;;
69619;Laerm;57653;51.434;5.984;2023-07-13T00:22:18;34.36;33.03;35.39;;
69619;Laerm;57653;51.434;5.984;2023-07-13T00:22:29;34.32;33.10;35.22;;
69619;Laerm;57653;51.434;5.984;2023-07-13T00:22:39;34.33;33.21;35.35;;
69619;Laerm;57653;51.434;5.984;2023-07-13T00:22:50;34.25;33.26;35.32;;
69619;Laerm;57653;51.434;5.984;2023-07-13T00:23:02;34.39;33.34;35.20;;
69619;Laerm;57653;51.434;5.984;2023-07-13T00:23:12;34.31;33.18;35.10;;
69619;Laerm;57653;51.434;5.984;2023-07-13T00:23:23;34.33;33.37;35.34;;
69619;Laerm;57653;51.434;5.984;2023-07-13T00:23:34;34.31;33.30;35.39;;
69619;Laerm;57653;51.434;5.984;2023-07-13T00:23:44;34.26;33.35;35.30;;
69619;Laerm;57653;51.434;5.984;2023-07-13T00:23:55;34.30;33.13;35.57;;
69619;Laerm;57653;51.434;5.984;2023-07-13T00:24:06;34.34;33.27;36.13;;
69619;Laerm;57653;51.434;5.984;2023-07-13T00:24:17;34.30;33.34;35.52;;
69619;Laerm;57653;51.434;5.984;2023-07-13T00:24:33;34.33;33.16;35.94;;
69619;Laerm;57653;51.434;5.984;2023-07-13T00:24:44;34.41;33.28;37.64;;
69619;Laerm;57653;51.434;5.984;2023-07-13T00:24:55;34.65;33.39;38.19;;
69619;Laerm;57653;51.434;5.984;2023-07-13T00:25:09;34.69;33.24;38.48;;
69619;Laerm;57653;51.434;5.984;2023-07-13T00:25:21;35.06;33.34;39.10;;
69619;Laerm;57653;51.434;5.984;2023-07-13T00:25:34;34.64;33.17;38.62;;
69619;Laerm;57653;51.434;5.984;2023-07-13T00:25:45;34.46;33.19;36.53;;
69619;Laerm;57653;51.434;5.984;2023-07-13T00:25:55;34.72;33.26;39.15;;
69619;Laerm;57653;51.434;5.984;2023-07-13T00:26:08;35.01;33.05;39.63;;
69619;Laerm;57653;51.434;5.984;2023-07-13T00:26:18;34.42;33.28;36.38;;
69619;Laerm;57653;51.434;5.984;2023-07-13T00:26:29;34.27;33.41;35.17;;
69619;Laerm;57653;51.434;5.984;2023-07-13T00:26:39;34.25;33.19;35.20;;
69619;Laerm;57653;51.434;5.984;2023-07-13T00:26:50;34.28;33.09;35.21;;
69619;Laerm;57653;51.434;5.984;2023-07-13T00:27:00;34.24;33.15;35.37;;
69619;Laerm;57653;51.434;5.984;2023-07-13T00:27:11;34.25;33.08;35.14;;
69619;Laerm;57653;51.434;5.984;2023-07-13T00:27:22;34.34;33.24;35.16;;
69619;Laerm;57653;51.434;5.984;2023-07-13T00:27:32;34.32;33.28;35.34;;
69619;Laerm;57653;51.434;5.984;2023-07-13T00:27:43;34.32;33.18;35.61;;
69619;Laerm;57653;51.434;5.984;2023-07-13T00:27:53;34.28;33.05;35.30;;
69619;Laerm;57653;51.434;5.984;2023-07-13T00:28:04;34.35;33.13;35.91;;
69619;Laerm;57653;51.434;5.984;2023-07-13T00:28:14;34.47;32.95;37.07;;
69619;Laerm;57653;51.434;5.984;2023-07-13T00:28:24;34.90;33.22;38.99;;
69619;Laerm;57653;51.434;5.984;2023-07-13T00:28:35;35.44;33.26;40.27;;
69619;Laerm;57653;51.434;5.984;2023-07-13T00:28:45;36.15;33.63;41.24;;
69619;Laerm;57653;51.434;5.984;2023-07-13T00:28:55;36.01;33.36;41.24;;
69619;Laerm;57653;51.434;5.984;2023-07-13T00:29:06;36.08;33.52;41.39;;
69619;Laerm;57653;51.434;5.984;2023-07-13T00:29:18;34.91;33.46;38.17;;
69619;Laerm;57653;51.434;5.984;2023-07-13T00:29:28;35.58;33.62;40.08;;
69619;Laerm;57653;51.434;5.984;2023-07-13T00:29:39;35.20;33.17;40.94;;
69619;Laerm;57653;51.434;5.984;2023-07-13T00:29:49;34.78;33.48;38.13;;
69619;Laerm;57653;51.434;5.984;2023-07-13T00:30:00;34.97;33.28;38.47;;
69619;Laerm;57653;51.434;5.984;2023-07-13T00:30:10;34.73;33.33;38.04;;
69619;Laerm;57653;51.434;5.984;2023-07-13T00:30:21;34.33;33.48;36.69;;
69619;Laerm;57653;51.434;5.984;2023-07-13T00:30:32;34.57;33.36;37.60;;
69619;Laerm;57653;51.434;5.984;2023-07-13T00:30:42;36.16;33.38;41.24;;
69619;Laerm;57653;51.434;5.984;2023-07-13T00:30:52;36.18;33.38;40.04;;
69619;Laerm;57653;51.434;5.984;2023-07-13T00:31:02;35.89;33.43;40.22;;
69619;Laerm;57653;51.434;5.984;2023-07-13T00:31:13;36.77;33.49;48.84;;
69619;Laerm;57653;51.434;5.984;2023-07-13T00:31:24;35.54;33.35;39.95;;
69619;Laerm;57653;51.434;5.984;2023-07-13T00:31:34;35.23;33.36;39.35;;
69619;Laerm;57653;51.434;5.984;2023-07-13T00:31:45;36.07;33.57;40.71;;
69619;Laerm;57653;51.434;5.984;2023-07-13T00:31:56;35.51;33.55;40.58;;
69619;Laerm;57653;51.434;5.984;2023-07-13T00:32:08;35.85;33.20;39.90;;
69619;Laerm;57653;51.434;5.984;2023-07-13T00:32:19;35.39;33.67;39.94;;
69619;Laerm;57653;51.434;5.984;2023-07-13T00:32:30;35.76;33.51;41.20;;
69619;Laerm;57653;51.434;5.984;2023-07-13T00:32:40;35.59;33.41;39.01;;
69619;Laerm;57653;51.434;5.984;2023-07-13T00:32:51;36.00;33.72;40.85;;
69619;Laerm;57653;51.434;5.984;2023-07-13T00:33:01;36.27;33.38;43.11;;
69619;Laerm;57653;51.434;5.984;2023-07-13T00:33:12;36.09;33.33;41.91;;
69619;Laerm;57653;51.434;5.984;2023-07-13T00:33:22;36.60;33.48;42.22;;
69619;Laerm;57653;51.434;5.984;2023-07-13T00:33:33;35.31;33.35;40.55;;
69619;Laerm;57653;51.434;5.984;2023-07-13T00:33:43;35.57;33.41;39.52;;
69619;Laerm;57653;51.434;5.984;2023-07-13T00:33:53;36.09;33.26;41.07;;
69619;Laerm;57653;51.434;5.984;2023-07-13T00:34:04;36.20;33.20;41.69;;
69619;Laerm;57653;51.434;5.984;2023-07-13T00:34:14;35.70;33.48;40.71;;
69619;Laerm;57653;51.434;5.984;2023-07-13T00:34:24;35.91;33.27;41.12;;
69619;Laerm;57653;51.434;5.984;2023-07-13T00:34:35;36.35;33.41;41.50;;
69619;Laerm;57653;51.434;5.984;2023-07-13T00:34:45;35.28;33.50;39.53;;
69619;Laerm;57653;51.434;5.984;2023-07-13T00:34:55;35.90;33.59;41.30;;
69619;Laerm;57653;51.434;5.984;2023-07-13T00:35:07;36.62;33.44;40.82;;
69619;Laerm;57653;51.434;5.984;2023-07-13T00:35:18;36.42;33.50;40.71;;
69619;Laerm;57653;51.434;5.984;2023-07-13T00:35:30;35.56;33.37;38.83;;
69619;Laerm;57653;51.434;5.984;2023-07-13T00:35:40;35.05;33.37;38.70;;
69619;Laerm;57653;51.434;5.984;2023-07-13T00:35:54;35.53;33.41;40.14;;
69619;Laerm;57653;51.434;5.984;2023-07-13T00:36:05;35.42;33.40;38.84;;
69619;Laerm;57653;51.434;5.984;2023-07-13T00:36:15;36.15;33.72;39.68;;
69619;Laerm;57653;51.434;5.984;2023-07-13T00:36:25;35.75;33.74;38.54;;
69619;Laerm;57653;51.434;5.984;2023-07-13T00:36:36;35.60;33.38;39.49;;
69619;Laerm;57653;51.434;5.984;2023-07-13T00:36:46;35.40;33.50;39.11;;
69619;Laerm;57653;51.434;5.984;2023-07-13T00:36:57;35.39;33.29;38.24;;
69619;Laerm;57653;51.434;5.984;2023-07-13T00:37:07;35.84;33.48;39.23;;
69619;Laerm;57653;51.434;5.984;2023-07-13T00:37:17;35.97;33.59;40.48;;
69619;Laerm;57653;51.434;5.984;2023-07-13T00:37:28;35.39;33.54;38.76;;
69619;Laerm;57653;51.434;5.984;2023-07-13T00:37:38;35.73;33.59;39.56;;
69619;Laerm;57653;51.434;5.984;2023-07-13T00:37:49;36.05;33.32;40.17;;
69619;Laerm;57653;51.434;5.984;2023-07-13T00:38:00;34.43;32.99;36.34;;
69619;Laerm;57653;51.434;5.984;2023-07-13T00:38:10;34.23;33.14;36.17;;
69619;Laerm;57653;51.434;5.984;2023-07-13T00:38:21;34.35;33.29;35.28;;
69619;Laerm;57653;51.434;5.984;2023-07-13T00:38:31;34.38;33.24;35.52;;
69619;Laerm;57653;51.434;5.984;2023-07-13T00:38:41;34.40;33.16;35.68;;
69619;Laerm;57653;51.434;5.984;2023-07-13T00:38:52;34.35;33.34;35.41;;
69619;Laerm;57653;51.434;5.984;2023-07-13T00:39:03;34.29;33.32;35.50;;
69619;Laerm;57653;51.434;5.984;2023-07-13T00:39:14;34.39;33.33;36.52;;
69619;Laerm;57653;51.434;5.984;2023-07-13T00:39:24;34.40;33.23;36.01;;
69619;Laerm;57653;51.434;5.984;2023-07-13T00:39:34;34.32;33.37;35.37;;
69619;Laerm;57653;51.434;5.984;2023-07-13T00:39:45;34.30;33.32;35.20;;
69619;Laerm;57653;51.434;5.984;2023-07-13T00:39:55;34.37;33.45;35.43;;
69619;Laerm;57653;51.434;5.984;2023-07-13T00:40:06;34.46;33.43;35.62;;
69619;Laerm;57653;51.434;5.984;2023-07-13T00:40:18;34.44;33.45;36.17;;
69619;Laerm;57653;51.434;5.984;2023-07-13T00:40:28;34.52;33.04;35.92;;
69619;Laerm;57653;51.434;5.984;2023-07-13T00:40:38;34.50;33.36;35.78;;
69619;Laerm;57653;51.434;5.984;2023-07-13T00:40:49;34.64;33.46;36.08;;
69619;Laerm;57653;51.434;5.984;2023-07-13T00:40:59;34.77;33.66;36.09;;
69619;Laerm;57653;51.434;5.984;2023-07-13T00:41:10;34.86;33.77;36.02;;
69619;Laerm;57653;51.434;5.984;2023-07-13T00:41:21;34.99;34.01;36.13;;
69619;Laerm;57653;51.434;5.984;2023-07-13T00:41:31;35.61;34.33;37.10;;
69619;Laerm;57653;51.434;5.984;2023-07-13T00:41:41;36.92;35.29;40.15;;
69619;Laerm;57653;51.434;5.984;2023-07-13T00:41:53;40.13;36.92;44.41;;
69619;Laerm;57653;51.434;5.984;2023-07-13T00:42:03;46.71;37.92;55.00;;
69619;Laerm;57653;51.434;5.984;2023-07-13T00:42:14;63.20;53.00;69.17;;
69619;Laerm;57653;51.434;5.984;2023-07-13T00:42:25;59.96;57.75;62.11;;
69619;Laerm;57653;51.434;5.984;2023-07-13T00:42:35;56.76;45.22;61.87;;
69619;Laerm;57653;51.434;5.984;2023-07-13T00:42:45;39.21;33.67;45.88;;
69619;Laerm;57653;51.434;5.984;2023-07-13T00:42:57;34.27;33.15;35.28;;
69619;Laerm;57653;51.434;5.984;2023-07-13T00:43:17;34.16;32.92;35.20;;
69619;Laerm;57653;51.434;5.984;2023-07-13T00:43:28;34.22;33.30;35.44;;
69619;Laerm;57653;51.434;5.984;2023-07-13T00:43:40;34.22;33.18;35.14;;
69619;Laerm;57653;51.434;5.984;2023-07-13T00:43:50;34.24;33.24;35.45;;
69619;Laerm;57653;51.434;5.984;2023-07-13T00:44:01;34.23;33.11;35.15;;
69619;Laerm;57653;51.434;5.984;2023-07-13T00:44:16;34.25;33.09;35.24;;
69619;Laerm;57653;51.434;5.984;2023-07-13T00:44:26;34.29;32.79;35.31;;
69619;Laerm;57653;51.434;5.984;2023-07-13T00:44:37;34.22;33.04;35.51;;
69619;Laerm;57653;51.434;5.984;2023-07-13T00:45:06;34.34;33.24;35.47;;
69619;Laerm;57653;51.434;5.984;2023-07-13T00:46:21;41.13;36.62;47.52;;
69619;Laerm;57653;51.434;5.984;2023-07-13T00:46:32;60.56;44.48;63.72;;
69619;Laerm;57653;51.434;5.984;2023-07-13T00:46:43;48.56;34.53;56.53;;
69619;Laerm;57653;51.434;5.984;2023-07-13T00:46:53;34.51;33.35;35.76;;
69619;Laerm;57653;51.434;5.984;2023-07-13T00:47:05;34.18;33.14;35.19;;
69619;Laerm;57653;51.434;5.984;2023-07-13T00:47:16;34.14;33.17;35.14;;
69619;Laerm;57653;51.434;5.984;2023-07-13T00:47:26;34.14;33.15;35.05;;
69619;Laerm;57653;51.434;5.984;2023-07-13T00:47:37;34.21;33.20;35.52;;
69619;Laerm;57653;51.434;5.984;2023-07-13T00:47:47;34.33;33.28;35.30;;
69619;Laerm;57653;51.434;5.984;2023-07-13T00:47:57;34.38;33.37;36.12;;
69619;Laerm;57653;51.434;5.984;2023-07-13T00:48:08;34.72;33.44;37.23;;
69619;Laerm;57653;51.434;5.984;2023-07-13T00:48:20;34.90;33.21;38.03;;
69619;Laerm;57653;51.434;5.984;2023-07-13T00:48:32;35.64;33.19;39.66;;
69619;Laerm;57653;51.434;5.984;2023-07-13T00:48:44;36.32;33.48;40.93;;
69619;Laerm;57653;51.434;5.984;2023-07-13T00:48:57;35.49;33.28;43.03;;
69619;Laerm;57653;51.434;5.984;2023-07-13T00:49:10;34.52;33.45;41.18;;
69619;Laerm;57653;51.434;5.984;2023-07-13T00:49:23;34.55;33.27;42.52;;
69619;Laerm;57653;51.434;5.984;2023-07-13T00:49:33;34.49;33.17;40.90;;
69619;Laerm;57653;51.434;5.984;2023-07-13T00:49:46;35.16;33.06;40.57;;
69619;Laerm;57653;51.434;5.984;2023-07-13T00:49:56;35.16;33.17;40.04;;
69619;Laerm;57653;51.434;5.984;2023-07-13T00:50:08;34.38;33.41;36.72;;
69619;Laerm;57653;51.434;5.984;2023-07-13T00:50:19;34.25;33.08;36.02;;
69619;Laerm;57653;51.434;5.984;2023-07-13T00:50:31;34.38;33.11;35.89;;
69619;Laerm;57653;51.434;5.984;2023-07-13T00:50:41;34.70;33.40;38.57;;
69619;Laerm;57653;51.434;5.984;2023-07-13T00:50:55;34.39;33.12;39.57;;
69619;Laerm;57653;51.434;5.984;2023-07-13T00:51:07;34.66;32.94;42.71;;
69619;Laerm;57653;51.434;5.984;2023-07-13T00:51:19;34.86;33.24;42.41;;
69619;Laerm;57653;51.434;5.984;2023-07-13T00:51:32;34.50;32.84;41.49;;
69619;Laerm;57653;51.434;5.984;2023-07-13T00:51:52;34.47;33.04;36.40;;
69619;Laerm;57653;51.434;5.984;2023-07-13T00:52:07;35.11;33.18;40.38;;
69619;Laerm;57653;51.434;5.984;2023-07-13T00:52:18;35.99;33.42;43.88;;
69619;Laerm;57653;51.434;5.984;2023-07-13T00:52:29;35.26;33.35;42.52;;
69619;Laerm;57653;51.434;5.984;2023-07-13T00:52:41;36.87;33.49;43.79;;
69619;Laerm;57653;51.434;5.984;2023-07-13T00:52:53;36.24;33.50;43.34;;
69619;Laerm;57653;51.434;5.984;2023-07-13T00:53:05;36.12;33.21;42.64;;
69619;Laerm;57653;51.434;5.984;2023-07-13T00:53:15;36.81;33.22;43.19;;
69619;Laerm;57653;51.434;5.984;2023-07-13T00:53:26;35.61;33.44;42.26;;
69619;Laerm;57653;51.434;5.984;2023-07-13T00:53:37;34.48;33.14;37.17;;
69619;Laerm;57653;51.434;5.984;2023-07-13T00:53:47;34.76;33.03;38.11;;
69619;Laerm;57653;51.434;5.984;2023-07-13T00:53:59;35.89;33.59;41.46;;
69619;Laerm;57653;51.434;5.984;2023-07-13T00:54:13;36.06;33.46;42.16;;
69619;Laerm;57653;51.434;5.984;2023-07-13T00:54:26;36.29;33.56;40.93;;
69619;Laerm;57653;51.434;5.984;2023-07-13T00:54:39;36.23;33.33;40.48;;
69619;Laerm;57653;51.434;5.984;2023-07-13T00:54:50;36.35;33.06;42.06;;
69619;Laerm;57653;51.434;5.984;2023-07-13T00:55:01;36.29;33.33;41.21;;
69619;Laerm;57653;51.434;5.984;2023-07-13T00:55:11;36.00;33.22;42.02;;
69619;Laerm;57653;51.434;5.984;2023-07-13T00:55:23;36.05;33.50;41.18;;
69619;Laerm;57653;51.434;5.984;2023-07-13T00:55:34;35.78;33.50;39.92;;
69619;Laerm;57653;51.434;5.984;2023-07-13T00:55:45;36.02;33.62;41.84;;
69619;Laerm;57653;51.434;5.984;2023-07-13T00:55:56;35.82;33.36;40.71;;
69619;Laerm;57653;51.434;5.984;2023-07-13T00:56:06;34.46;33.49;35.76;;
69619;Laerm;57653;51.434;5.984;2023-07-13T00:56:17;34.29;33.36;35.40;;
69619;Laerm;57653;51.434;5.984;2023-07-13T00:56:27;34.31;33.27;36.49;;
69619;Laerm;57653;51.434;5.984;2023-07-13T00:56:39;34.55;33.29;37.18;;
69619;Laerm;57653;51.434;5.984;2023-07-13T00:56:51;34.25;33.17;35.16;;
69619;Laerm;57653;51.434;5.984;2023-07-13T00:57:02;34.32;33.24;35.24;;
69619;Laerm;57653;51.434;5.984;2023-07-13T00:57:15;34.26;33.05;35.45;;
69619;Laerm;57653;51.434;5.984;2023-07-13T00:57:26;34.26;32.85;35.96;;
69619;Laerm;57653;51.434;5.984;2023-07-13T00:57:36;34.31;33.22;36.08;;
69619;Laerm;57653;51.434;5.984;2023-07-13T00:57:47;34.32;33.27;35.69;;
69619;Laerm;57653;51.434;5.984;2023-07-13T00:57:57;34.38;33.29;36.67;;
69619;Laerm;57653;51.434;5.984;2023-07-13T00:58:08;34.57;33.24;37.13;;
69619;Laerm;57653;51.434;5.984;2023-07-13T00:58:19;34.82;33.17;38.40;;
69619;Laerm;57653;51.434;5.984;2023-07-13T00:58:29;35.58;33.29;41.46;;
69619;Laerm;57653;51.434;5.984;2023-07-13T00:58:40;34.78;33.21;39.73;;
69619;Laerm;57653;51.434;5.984;2023-07-13T00:58:50;35.52;33.47;41.32;;
69619;Laerm;57653;51.434;5.984;2023-07-13T00:59:02;35.44;33.33;41.75;;
69619;Laerm;57653;51.434;5.984;2023-07-13T00:59:13;35.43;33.40;40.20;;
69619;Laerm;57653;51.434;5.984;2023-07-13T00:59:25;36.55;33.38;41.76;;
69619;Laerm;57653;51.434;5.984;2023-07-13T00:59:36;36.21;33.74;41.37;;
69619;Laerm;57653;51.434;5.984;2023-07-13T00:59:52;34.84;33.19;37.20;;
69619;Laerm;57653;51.434;5.984;2023-07-13T01:00:04;34.92;33.29;39.41;;
69619;Laerm;57653;51.434;5.984;2023-07-13T01:00:18;37.13;33.51;43.72;;
69619;Laerm;57653;51.434;5.984;2023-07-13T01:00:31;35.90;33.24;40.74;;
69619;Laerm;57653;51.434;5.984;2023-07-13T01:00:41;35.50;33.19;38.83;;
69619;Laerm;57653;51.434;5.984;2023-07-13T01:00:52;35.29;33.75;38.82;;
69619;Laerm;57653;51.434;5.984;2023-07-13T01:01:02;35.00;33.12;38.61;;
69619;Laerm;57653;51.434;5.984;2023-07-13T01:01:13;35.17;33.34;39.36;;
69619;Laerm;57653;51.434;5.984;2023-07-13T01:01:23;35.40;33.34;39.11;;
69619;Laerm;57653;51.434;5.984;2023-07-13T01:01:33;35.81;33.43;40.55;;
69619;Laerm;57653;51.434;5.984;2023-07-13T01:01:44;35.87;33.33;41.05;;
69619;Laerm;57653;51.434;5.984;2023-07-13T01:01:54;35.74;33.68;41.09;;
69619;Laerm;57653;51.434;5.984;2023-07-13T01:02:04;35.96;33.49;39.54;;
69619;Laerm;57653;51.434;5.984;2023-07-13T01:02:15;34.99;33.09;39.67;;
69619;Laerm;57653;51.434;5.984;2023-07-13T01:02:26;34.76;33.56;37.44;;
69619;Laerm;57653;51.434;5.984;2023-07-13T01:02:39;34.91;33.13;37.46;;
69619;Laerm;57653;51.434;5.984;2023-07-13T01:02:50;35.54;33.11;40.77;;
69619;Laerm;57653;51.434;5.984;2023-07-13T01:03:00;35.68;33.49;41.85;;
69619;Laerm;57653;51.434;5.984;2023-07-13T01:03:14;35.90;33.08;40.71;;
69619;Laerm;57653;51.434;5.984;2023-07-13T01:03:25;34.58;33.02;37.86;;
69619;Laerm;57653;51.434;5.984;2023-07-13T01:03:35;34.40;33.38;36.49;;